Time;durP1;ratioP1;P1;durP2;ratioP2;P2;SDS_P1;SDS_P2;PMS_P1;PMS_P2;Temp;Humidity;BMP_temperature;BMP_pressure;BME280_temperature;BME280_humidity;BME280_pressure;Samples;Min_cycle;Max_cycle;Signal;HPM_P1;HPM_P2
2022/08/21 00:00:07;;;;;;;25.73;8.03;;;20.10;99.90;;;;;;4992616;28;20667;-71
2022/08/21 00:02:34;;;;;;;29.27;8.40;;;20.10;99.90;;;;;;4990748;28;20806;-71
2022/08/21 00:05:02;;;;;;;24.77;8.07;;;20.10;99.90;;;;;;4996956;28;20609;-71
2022/08/21 00:07:30;;;;;;;33.63;7.97;;;20.00;99.90;;;;;;4974429;28;20211;-72
2022/08/21 00:09:58;;;;;;;19.27;6.80;;;20.00;99.90;;;;;;4985589;28;20750;-70
2022/08/21 00:12:25;;;;;;;35.17;8.23;;;20.00;99.90;;;;;;4994379;28;20200;-70
2022/08/21 00:14:52;;;;;;;27.13;7.30;;;20.00;99.90;;;;;;5004243;28;20206;-71
2022/08/21 00:17:19;;;;;;;30.13;8.50;;;19.90;99.90;;;;;;5011928;28;20207;-70
2022/08/21 00:19:46;;;;;;;25.07;7.70;;;19.90;99.90;;;;;;4994244;28;20238;-70
2022/08/21 00:22:12;;;;;;;28.90;8.53;;;19.90;99.90;;;;;;4994217;28;20302;-71
2022/08/21 00:24:41;;;;;;;21.03;8.03;;;19.80;99.90;;;;;;4994228;28;20207;-70
2022/08/21 00:27:08;;;;;;;23.93;8.13;;;19.80;99.90;;;;;;4994225;28;20629;-72
2022/08/21 00:29:35;;;;;;;25.00;8.10;;;19.80;99.90;;;;;;4993807;28;20236;-71
2022/08/21 00:32:02;;;;;;;29.90;8.33;;;19.80;99.90;;;;;;4993825;28;20213;-71
2022/08/21 00:34:28;;;;;;;30.30;8.27;;;19.80;99.90;;;;;;4996952;28;20302;-70
2022/08/21 00:36:55;;;;;;;24.83;8.07;;;19.80;99.90;;;;;;5013334;28;20234;-69
2022/08/21 00:39:22;;;;;;;25.73;8.13;;;19.80;99.90;;;;;;5012376;28;20272;-70
2022/08/21 00:41:51;;;;;;;26.70;8.93;;;19.80;99.90;;;;;;5013447;28;20266;-70
2022/08/21 00:44:18;;;;;;;25.43;8.53;;;19.70;99.90;;;;;;5013686;28;20741;-71
2022/08/21 00:46:45;;;;;;;31.27;9.37;;;19.60;99.90;;;;;;5008812;28;20201;-70
2022/08/21 00:49:13;;;;;;;32.77;8.57;;;19.60;99.90;;;;;;4993263;28;20209;-70
2022/08/21 00:51:44;;;;;;;28.17;8.90;;;19.60;99.90;;;;;;4998252;28;20294;-69
2022/08/21 00:54:13;;;;;;;31.90;8.80;;;19.60;99.90;;;;;;4999976;28;20258;-69
2022/08/21 00:56:40;;;;;;;29.83;9.20;;;19.60;99.90;;;;;;4993131;28;20571;-71
2022/08/21 00:59:08;;;;;;;23.20;8.63;;;19.60;99.90;;;;;;4993071;28;20268;-69
2022/08/21 01:01:35;;;;;;;22.63;8.70;;;19.50;99.90;;;;;;4993674;28;20225;-69
2022/08/21 01:04:03;;;;;;;26.20;9.47;;;19.50;99.90;;;;;;4993766;28;20264;-70
2022/08/21 01:06:30;;;;;;;32.60;8.87;;;19.50;99.90;;;;;;4993499;28;20265;-71
2022/08/21 01:08:57;;;;;;;24.63;8.67;;;19.50;99.90;;;;;;4993795;28;20720;-70
2022/08/21 01:11:24;;;;;;;31.13;9.47;;;19.50;99.90;;;;;;4994377;28;20250;-68
2022/08/21 01:13:51;;;;;;;25.13;8.63;;;19.50;99.90;;;;;;4989642;28;20297;-71
2022/08/21 01:16:22;;;;;;;29.80;8.80;;;19.50;99.90;;;;;;4998352;28;20276;-70
2022/08/21 01:18:50;;;;;;;27.53;8.63;;;19.50;99.90;;;;;;4982648;28;20630;-71
2022/08/21 01:21:21;;;;;;;28.00;8.70;;;19.50;99.90;;;;;;4992722;28;20206;-70
2022/08/21 01:23:52;;;;;;;25.43;8.50;;;19.50;99.90;;;;;;4992821;28;20286;-70
2022/08/21 01:26:22;;;;;;;23.30;8.57;;;19.60;99.90;;;;;;4993243;28;20576;-70
2022/08/21 01:28:58;;;;;;;28.57;8.47;;;19.60;99.90;;;;;;4993161;28;20216;-71
2022/08/21 01:31:27;;;;;;;28.30;9.50;;;19.60;99.90;;;;;;4990444;28;20259;-69
2022/08/21 01:33:55;;;;;;;32.03;9.50;;;19.60;99.90;;;;;;4990536;28;20290;-70
2022/08/21 01:36:24;;;;;;;29.73;8.30;;;19.60;99.90;;;;;;4989698;28;20300;-70
2022/08/21 01:38:51;;;;;;;28.60;8.37;;;19.60;99.90;;;;;;4985168;28;20238;-70
2022/08/21 01:41:18;;;;;;;26.07;8.90;;;19.60;99.90;;;;;;4986545;28;20365;-70
2022/08/21 01:43:45;;;;;;;29.47;8.37;;;19.60;99.90;;;;;;4988790;28;20229;-70
2022/08/21 01:46:13;;;;;;;31.63;8.47;;;19.60;99.90;;;;;;4991532;28;20212;-70
2022/08/21 01:48:40;;;;;;;28.43;8.47;;;19.60;99.90;;;;;;4989082;28;20213;-68
2022/08/21 01:51:08;;;;;;;26.20;8.13;;;19.60;99.90;;;;;;4992599;28;20219;-69
2022/08/21 01:53:38;;;;;;;17.47;7.33;;;19.60;99.90;;;;;;4993254;28;20327;-69
2022/08/21 01:56:08;;;;;;;20.37;7.37;;;19.60;99.90;;;;;;4992420;28;20207;-69
2022/08/21 01:58:36;;;;;;;24.43;7.87;;;19.60;99.90;;;;;;4992192;28;20210;-69
2022/08/21 02:01:04;;;;;;;22.97;7.47;;;19.60;99.90;;;;;;4993174;28;20300;-69
2022/08/21 02:03:32;;;;;;;25.37;7.30;;;19.60;99.90;;;;;;4992384;28;20759;-70
2022/08/21 02:05:58;;;;;;;29.90;8.00;;;19.60;99.90;;;;;;4992818;28;20294;-70
2022/08/21 02:08:26;;;;;;;28.43;7.53;;;19.60;99.90;;;;;;4992686;28;20724;-70
2022/08/21 02:10:54;;;;;;;22.90;7.50;;;19.60;99.90;;;;;;4992539;28;20207;-70
2022/08/21 02:13:22;;;;;;;26.23;7.37;;;19.60;99.90;;;;;;4992596;28;20401;-70
2022/08/21 02:15:49;;;;;;;26.77;8.10;;;19.60;99.90;;;;;;4992718;28;20299;-69
2022/08/21 02:18:16;;;;;;;23.33;8.27;;;19.60;99.90;;;;;;5010581;28;20306;-70
2022/08/21 02:20:47;;;;;;;26.03;7.67;;;19.60;99.90;;;;;;5012245;28;20616;-70
2022/08/21 02:23:14;;;;;;;44.93;8.60;;;19.60;99.90;;;;;;5001674;28;20309;-69
2022/08/21 02:25:42;;;;;;;24.30;7.13;;;19.70;99.90;;;;;;4990151;28;20228;-70
2022/08/21 02:28:14;;;;;;;31.47;8.50;;;19.60;99.90;;;;;;4989201;28;20211;-70
2022/08/21 02:30:43;;;;;;;25.30;8.23;;;19.60;99.90;;;;;;4992340;28;20272;-70
2022/08/21 02:33:11;;;;;;;26.80;8.33;;;19.60;99.90;;;;;;4985461;28;20200;-71
2022/08/21 02:35:39;;;;;;;23.87;8.07;;;19.70;99.90;;;;;;4988158;28;20711;-69
2022/08/21 02:38:11;;;;;;;25.20;8.40;;;19.70;99.90;;;;;;4991106;28;20333;-69
2022/08/21 02:40:40;;;;;;;26.60;8.47;;;19.70;99.90;;;;;;4989754;28;20310;-71
2022/08/21 02:43:08;;;;;;;29.83;9.07;;;19.80;99.90;;;;;;4987058;28;20311;-71
2022/08/21 02:45:37;;;;;;;30.63;9.87;;;19.70;99.90;;;;;;4990245;28;20204;-70
2022/08/21 02:48:07;;;;;;;29.43;9.20;;;19.80;99.90;;;;;;4994210;28;20205;-70
2022/08/21 02:50:36;;;;;;;21.87;9.30;;;19.80;99.90;;;;;;4995835;28;20213;-69
2022/08/21 02:53:04;;;;;;;21.03;8.70;;;19.80;99.90;;;;;;4989633;28;20209;-70
2022/08/21 02:55:32;;;;;;;27.57;9.13;;;19.80;99.90;;;;;;4994738;28;20208;-70
2022/08/21 02:58:00;;;;;;;26.50;9.23;;;19.90;99.90;;;;;;4994364;28;20242;-70
2022/08/21 03:00:30;;;;;;;28.63;9.43;;;19.90;99.90;;;;;;4992799;28;20576;-70
2022/08/21 03:02:58;;;;;;;23.53;9.70;;;19.80;99.90;;;;;;4994846;28;20226;-70
2022/08/21 03:05:27;;;;;;;29.83;9.53;;;19.90;99.90;;;;;;4993281;28;20233;-70
2022/08/21 03:07:55;;;;;;;32.37;9.00;;;19.80;99.90;;;;;;4994069;28;20212;-71
2022/08/21 03:10:23;;;;;;;26.10;9.43;;;19.80;99.90;;;;;;4993080;28;20721;-69
2022/08/21 03:12:50;;;;;;;24.43;8.30;;;19.80;99.90;;;;;;4993051;28;20294;-70
2022/08/21 03:15:19;;;;;;;30.40;8.90;;;19.80;99.90;;;;;;4993315;28;20298;-69
2022/08/21 03:17:47;;;;;;;23.17;8.50;;;19.80;99.90;;;;;;4992881;28;20216;-70
2022/08/21 03:20:18;;;;;;;26.40;8.00;;;19.80;99.90;;;;;;4995089;28;20634;-69
2022/08/21 03:22:46;;;;;;;26.60;7.93;;;19.70;99.90;;;;;;4992205;28;20630;-70
2022/08/21 03:25:13;;;;;;;24.40;7.33;;;19.70;99.90;;;;;;4990375;28;20666;-70
2022/08/21 03:27:40;;;;;;;23.40;7.27;;;19.70;99.90;;;;;;4993081;28;20286;-69
2022/08/21 03:30:09;;;;;;;26.67;7.40;;;19.70;99.90;;;;;;4984048;28;20294;-70
2022/08/21 03:32:36;;;;;;;32.87;7.40;;;19.70;99.90;;;;;;5005083;28;20664;-69
2022/08/21 03:35:04;;;;;;;26.13;7.43;;;19.70;99.90;;;;;;4992811;28;20623;-70
2022/08/21 03:37:33;;;;;;;25.80;7.23;;;19.80;99.90;;;;;;5002061;28;20314;-70
2022/08/21 03:39:59;;;;;;;26.03;7.30;;;19.70;99.90;;;;;;5009876;28;20211;-70
2022/08/21 03:42:26;;;;;;;28.07;7.93;;;19.70;99.90;;;;;;4992182;28;20330;-69
2022/08/21 03:44:54;;;;;;;25.00;7.30;;;19.70;99.90;;;;;;4991341;28;20294;-69
2022/08/21 03:47:21;;;;;;;27.93;7.57;;;19.70;99.90;;;;;;4992742;28;20286;-70
2022/08/21 03:49:49;;;;;;;26.13;8.17;;;19.70;99.90;;;;;;4977688;28;20639;-70
2022/08/21 03:52:16;;;;;;;34.40;7.97;;;19.70;99.90;;;;;;4987192;28;20299;-70
2022/08/21 03:54:45;;;;;;;26.37;6.40;;;19.70;99.90;;;;;;4990414;28;20214;-70
2022/08/21 03:57:12;;;;;;;18.23;6.60;;;19.70;99.90;;;;;;4992765;28;20308;-70
2022/08/21 03:59:39;;;;;;;21.53;6.87;;;19.70;99.90;;;;;;4991418;28;20278;-70
2022/08/21 04:02:07;;;;;;;28.17;6.80;;;19.70;99.90;;;;;;4990273;28;20204;-69
2022/08/21 04:04:35;;;;;;;24.03;6.90;;;19.70;99.90;;;;;;4993791;28;20214;-69
2022/08/21 04:07:02;;;;;;;25.33;7.53;;;19.70;99.90;;;;;;4989168;28;20295;-70
2022/08/21 04:09:29;;;;;;;34.43;6.60;;;19.80;99.90;;;;;;4988753;28;20345;-69
2022/08/21 04:11:59;;;;;;;27.90;7.23;;;19.80;99.90;;;;;;4987330;28;20232;-70
2022/08/21 04:14:26;;;;;;;28.53;7.50;;;19.80;99.90;;;;;;4993578;28;20727;-69
2022/08/21 04:16:53;;;;;;;30.10;7.23;;;19.90;99.90;;;;;;4991419;28;20237;-69
2022/08/21 04:19:20;;;;;;;21.60;6.43;;;19.90;99.90;;;;;;4993912;28;20695;-69
2022/08/21 04:21:48;;;;;;;26.37;6.67;;;20.00;99.90;;;;;;4990198;28;20639;-70
2022/08/21 04:24:16;;;;;;;23.33;6.67;;;20.00;99.90;;;;;;4989588;28;20231;-71
2022/08/21 04:26:43;;;;;;;29.67;6.37;;;20.00;99.90;;;;;;4991722;28;20294;-70
2022/08/21 04:29:11;;;;;;;23.13;6.27;;;20.00;99.90;;;;;;4992591;28;20262;-70
2022/08/21 04:31:38;;;;;;;17.57;6.13;;;20.00;99.90;;;;;;4991558;28;20240;-71
2022/08/21 04:34:05;;;;;;;24.40;6.53;;;20.10;99.90;;;;;;4989564;28;20598;-71
2022/08/21 04:36:32;;;;;;;23.07;6.47;;;20.20;99.90;;;;;;4992780;28;20296;-69
2022/08/21 04:38:59;;;;;;;24.93;6.27;;;20.20;99.90;;;;;;4990947;28;20329;-70
2022/08/21 04:41:26;;;;;;;18.23;6.10;;;20.20;99.90;;;;;;4991602;28;20653;-72
2022/08/21 04:43:54;;;;;;;27.03;6.63;;;20.10;99.90;;;;;;4993318;28;20290;-71
2022/08/21 04:46:23;;;;;;;23.33;6.63;;;20.10;99.90;;;;;;4991275;28;20291;-69
2022/08/21 04:48:50;;;;;;;25.53;6.80;;;20.00;99.90;;;;;;4990609;28;20205;-69
2022/08/21 04:51:22;;;;;;;21.53;6.10;;;19.90;99.90;;;;;;4990857;28;20232;-70
2022/08/21 04:53:54;;;;;;;22.90;6.30;;;19.90;99.90;;;;;;4988461;28;20210;-70
2022/08/21 04:56:24;;;;;;;26.17;6.50;;;19.90;99.90;;;;;;4991130;28;20206;-69
2022/08/21 04:58:53;;;;;;;22.47;5.63;;;19.90;99.90;;;;;;4989235;28;20542;-70
2022/08/21 05:01:25;;;;;;;33.33;7.17;;;19.90;99.90;;;;;;4988978;28;20207;-71
2022/08/21 05:03:56;;;;;;;25.07;5.70;;;19.90;99.90;;;;;;4993160;28;20674;-71
2022/08/21 05:06:24;;;;;;;21.67;6.87;;;19.90;99.90;;;;;;4988575;28;20237;-70
2022/08/21 05:08:55;;;;;;;23.70;6.80;;;19.90;99.90;;;;;;4989375;28;20217;-73
2022/08/21 05:11:22;;;;;;;24.50;6.20;;;19.90;99.90;;;;;;4991265;28;20218;-68
2022/08/21 05:13:49;;;;;;;30.47;7.17;;;19.90;99.90;;;;;;4991197;28;20287;-70
2022/08/21 05:16:16;;;;;;;24.07;6.27;;;19.90;99.90;;;;;;4990632;28;20214;-69
2022/08/21 05:18:45;;;;;;;23.13;5.80;;;20.00;99.90;;;;;;4992547;28;20213;-70
2022/08/21 05:21:11;;;;;;;24.53;5.87;;;20.00;99.90;;;;;;4990934;28;20247;-70
2022/08/21 05:23:38;;;;;;;18.47;5.97;;;20.10;99.90;;;;;;4989729;28;20233;-71
2022/08/21 05:26:05;;;;;;;23.17;5.90;;;20.20;99.90;;;;;;4987187;28;20200;-70
2022/08/21 05:28:32;;;;;;;22.87;5.87;;;20.20;99.90;;;;;;4989980;28;20294;-70
2022/08/21 05:30:59;;;;;;;22.67;5.30;;;20.30;99.90;;;;;;4990387;28;20207;-70
2022/08/21 05:33:26;;;;;;;23.47;5.97;;;20.30;99.90;;;;;;4990857;28;20237;-70
2022/08/21 05:35:56;;;;;;;24.57;5.43;;;20.40;99.90;;;;;;4990333;28;20630;-70
2022/08/21 05:38:23;;;;;;;25.90;6.17;;;20.40;99.90;;;;;;4983588;28;20231;-71
2022/08/21 05:40:50;;;;;;;25.13;5.63;;;20.40;99.90;;;;;;4990222;28;20242;-71
2022/08/21 05:43:17;;;;;;;29.50;6.47;;;20.40;99.90;;;;;;4990099;28;20309;-69
2022/08/21 05:45:44;;;;;;;21.73;5.97;;;20.40;99.90;;;;;;4990376;28;20650;-69
2022/08/21 05:48:13;;;;;;;29.67;5.67;;;20.40;99.90;;;;;;4991234;28;20294;-69
2022/08/21 05:50:40;;;;;;;24.93;6.17;;;20.40;99.90;;;;;;4988841;28;20199;-70
2022/08/21 05:53:10;;;;;;;22.97;5.30;;;20.40;99.90;;;;;;4986293;28;20199;-69
2022/08/21 05:55:37;;;;;;;27.57;6.20;;;20.50;99.90;;;;;;4990926;28;20210;-71
2022/08/21 05:58:04;;;;;;;26.80;6.67;;;20.60;99.90;;;;;;4990759;28;20210;-70
2022/08/21 06:00:31;;;;;;;26.30;5.33;;;20.60;99.90;;;;;;4990839;28;20199;-69
2022/08/21 06:02:59;;;;;;;26.73;7.73;;;20.70;99.90;;;;;;4989738;28;20219;-70
2022/08/21 06:05:26;;;;;;;25.77;6.00;;;20.80;99.90;;;;;;4988859;28;20227;-70
2022/08/21 06:07:53;;;;;;;22.60;5.50;;;20.90;99.90;;;;;;4990192;28;20286;-70
2022/08/21 06:10:22;;;;;;;18.17;5.20;;;20.90;99.90;;;;;;4984248;28;20212;-70
2022/08/21 06:12:54;;;;;;;33.57;9.33;;;21.00;99.90;;;;;;4989382;28;20240;-70
2022/08/21 06:15:21;;;;;;;25.73;6.20;;;21.10;99.90;;;;;;4990687;28;20633;-69
2022/08/21 06:17:48;;;;;;;29.13;5.43;;;21.10;99.90;;;;;;4988833;28;20299;-72
2022/08/21 06:20:15;;;;;;;18.63;5.40;;;21.20;99.90;;;;;;4989050;28;20207;-70
2022/08/21 06:22:42;;;;;;;26.50;5.23;;;21.20;99.90;;;;;;4987605;28;20210;-71
2022/08/21 06:25:10;;;;;;;32.07;5.60;;;21.20;99.90;;;;;;4993249;28;20830;-71
2022/08/21 06:27:38;;;;;;;23.60;6.17;;;21.20;99.90;;;;;;4990569;28;20242;-72
2022/08/21 06:30:06;;;;;;;23.27;6.07;;;21.30;99.90;;;;;;4993169;28;20211;-70
2022/08/21 06:32:34;;;;;;;22.47;5.77;;;21.30;99.90;;;;;;4993249;28;20261;-69
2022/08/21 06:35:01;;;;;;;20.20;5.00;;;21.40;99.90;;;;;;4990897;28;20711;-74
2022/08/21 06:37:27;;;;;;;21.97;5.30;;;21.50;99.90;;;;;;4991705;28;20717;-72
2022/08/21 06:39:54;;;;;;;35.27;6.07;;;21.50;99.90;;;;;;4991932;28;20208;-70
2022/08/21 06:42:21;;;;;;;24.87;5.80;;;21.60;99.90;;;;;;4995183;28;20294;-70
2022/08/21 06:44:50;;;;;;;24.50;5.83;;;21.60;99.90;;;;;;4993864;28;20251;-73
2022/08/21 06:47:17;;;;;;;23.63;6.37;;;21.70;99.90;;;;;;4993782;28;20212;-73
2022/08/21 06:49:44;;;;;;;23.60;5.70;;;21.70;99.90;;;;;;4993684;28;20670;-70
2022/08/21 06:52:11;;;;;;;27.37;6.00;;;21.60;99.90;;;;;;4992480;28;20203;-70
2022/08/21 06:54:39;;;;;;;26.20;5.87;;;21.70;99.90;;;;;;4995713;28;20203;-71
2022/08/21 06:57:06;;;;;;;22.23;6.57;;;21.70;99.90;;;;;;4990979;28;20287;-72
2022/08/21 06:59:33;;;;;;;28.90;5.50;;;21.80;99.90;;;;;;4994046;28;20208;-70
2022/08/21 07:02:01;;;;;;;20.37;5.67;;;21.80;99.90;;;;;;4990910;28;20322;-71
2022/08/21 07:04:28;;;;;;;28.97;5.83;;;21.90;99.90;;;;;;4991153;28;20314;-74
2022/08/21 07:06:55;;;;;;;21.23;5.67;;;21.90;99.90;;;;;;4993961;28;20286;-70
2022/08/21 07:09:22;;;;;;;20.03;5.27;;;22.00;99.90;;;;;;4994600;28;20259;-71
2022/08/21 07:11:52;;;;;;;24.83;5.47;;;22.00;99.90;;;;;;4986375;28;20254;-71
2022/08/21 07:14:19;;;;;;;30.70;6.37;;;22.10;99.90;;;;;;4994789;28;20294;-71
2022/08/21 07:16:47;;;;;;;23.73;6.30;;;22.10;99.90;;;;;;4995390;28;20256;-72
2022/08/21 07:19:15;;;;;;;22.07;5.30;;;22.20;99.90;;;;;;4995494;28;20251;-74
2022/08/21 07:21:42;;;;;;;20.70;5.53;;;22.20;99.90;;;;;;4995118;28;20266;-71
2022/08/21 07:24:09;;;;;;;23.47;5.90;;;22.30;99.90;;;;;;4994812;28;20265;-71
2022/08/21 07:26:36;;;;;;;30.67;6.30;;;22.40;99.90;;;;;;4993894;28;20271;-71
2022/08/21 07:29:03;;;;;;;26.63;6.07;;;22.40;99.90;;;;;;4994975;28;20205;-71
2022/08/21 07:31:30;;;;;;;28.67;5.60;;;22.50;99.90;;;;;;4993351;28;20675;-74
2022/08/21 07:33:57;;;;;;;26.23;5.83;;;22.70;99.90;;;;;;4994920;28;20212;-70
2022/08/21 07:36:26;;;;;;;20.30;5.73;;;22.60;99.90;;;;;;4993637;28;20213;-71
2022/08/21 07:38:53;;;;;;;20.37;6.00;;;22.80;99.90;;;;;;4994451;28;20328;-71
2022/08/21 07:41:25;;;;;;;24.93;5.87;;;22.80;99.90;;;;;;4994426;28;20211;-71
2022/08/21 07:43:52;;;;;;;23.00;5.87;;;22.90;99.90;;;;;;4994163;28;20227;-72
2022/08/21 07:46:19;;;;;;;21.37;6.07;;;22.90;99.90;;;;;;4987252;28;20208;-71
2022/08/21 07:48:46;;;;;;;25.70;6.13;;;23.00;99.90;;;;;;4990436;28;20581;-70
2022/08/21 07:51:15;;;;;;;23.20;6.20;;;23.10;99.90;;;;;;4994121;28;20240;-71
2022/08/21 07:53:48;;;;;;;29.40;6.13;;;23.10;99.90;;;;;;4994362;28;20210;-71
2022/08/21 07:56:15;;;;;;;19.83;5.60;;;23.20;99.90;;;;;;4994780;28;20660;-69
2022/08/21 07:58:42;;;;;;;24.10;5.90;;;23.30;99.90;;;;;;4992393;28;20749;-71
2022/08/21 08:01:09;;;;;;;26.63;6.37;;;23.40;99.90;;;;;;4994700;28;20762;-70
2022/08/21 08:03:36;;;;;;;23.73;6.63;;;23.50;99.90;;;;;;4994117;28;20295;-70
2022/08/21 08:06:04;;;;;;;18.97;5.77;;;23.50;99.90;;;;;;4994220;28;20233;-71
2022/08/21 08:08:31;;;;;;;24.73;6.30;;;23.50;99.90;;;;;;4992091;28;20207;-70
2022/08/21 08:11:01;;;;;;;20.97;5.53;;;23.60;99.90;;;;;;4994307;28;20303;-70
2022/08/21 08:13:28;;;;;;;21.83;5.77;;;23.70;99.90;;;;;;4994282;28;20216;-74
2022/08/21 08:15:54;;;;;;;16.70;5.17;;;23.80;99.90;;;;;;4993987;28;20207;-71
2022/08/21 08:18:21;;;;;;;29.90;6.90;;;23.80;99.90;;;;;;4992959;28;20637;-71
2022/08/21 08:20:48;;;;;;;20.37;5.60;;;23.90;99.90;;;;;;4994043;28;20221;-73
2022/08/21 08:23:15;;;;;;;23.27;6.10;;;23.90;99.90;;;;;;4992210;28;20730;-70
2022/08/21 08:25:43;;;;;;;19.77;6.67;;;23.90;99.90;;;;;;4987755;28;20237;-72
2022/08/21 08:28:11;;;;;;;21.63;6.73;;;23.90;99.90;;;;;;4990874;28;20286;-71
2022/08/21 08:30:38;;;;;;;23.00;6.17;;;23.90;99.90;;;;;;4993900;28;20292;-72
2022/08/21 08:33:05;;;;;;;26.67;7.03;;;24.00;99.90;;;;;;4993505;28;20214;-69
2022/08/21 08:35:32;;;;;;;22.47;6.13;;;24.00;99.90;;;;;;4993509;28;20522;-72
2022/08/21 08:37:59;;;;;;;30.27;6.40;;;24.00;99.90;;;;;;4991089;28;20251;-70
2022/08/21 08:40:36;;;;;;;25.27;5.70;;;24.00;99.90;;;;;;4993448;28;20291;-72
2022/08/21 08:43:03;;;;;;;25.57;6.03;;;24.10;99.90;;;;;;4993685;28;20194;-69
2022/08/21 08:45:37;;;;;;;20.73;5.63;;;24.10;99.90;;;;;;4993600;28;20730;-74
2022/08/21 08:48:07;;;;;;;27.20;6.17;;;24.10;99.90;;;;;;4992871;28;20203;-71
2022/08/21 08:50:41;;;;;;;26.07;6.07;;;24.10;99.90;;;;;;4993652;28;20245;-70
2022/08/21 08:53:13;;;;;;;28.60;5.80;;;24.10;99.90;;;;;;4993525;28;20190;-70
2022/08/21 08:55:43;;;;;;;20.93;5.37;;;24.10;99.90;;;;;;4993426;28;20545;-71
2022/08/21 08:58:16;;;;;;;22.97;5.90;;;24.20;99.90;;;;;;4991047;28;20286;-72
2022/08/21 09:00:48;;;;;;;28.77;5.30;;;24.20;99.90;;;;;;4990063;28;20257;-72
2022/08/21 09:03:16;;;;;;;26.80;5.60;;;24.30;99.90;;;;;;4992803;28;20213;-71
2022/08/21 09:05:47;;;;;;;21.53;6.20;;;24.40;99.90;;;;;;4992872;28;20320;-71
2022/08/21 09:08:35;;;;;;;21.73;5.63;;;24.50;99.90;;;;;;4993010;28;20687;-70
2022/08/21 09:11:06;;;;;;;26.50;5.53;;;24.60;99.90;;;;;;4993086;28;20707;-71
2022/08/21 09:13:44;;;;;;;23.42;5.93;;;24.60;99.90;;;;;;4993163;28;20283;-70
2022/08/21 09:16:21;;;;;;;23.20;5.43;;;24.60;99.90;;;;;;4993181;28;20280;-76
2022/08/21 09:18:59;;;;;;;26.73;5.38;;;24.70;99.90;;;;;;4992674;28;20291;-72
2022/08/21 09:21:32;;;;;;;41.60;5.50;;;24.80;99.90;;;;;;4988428;28;20448;-70
2022/08/21 09:24:02;;;;;;;23.83;5.87;;;24.80;99.90;;;;;;4996763;28;20635;-71
2022/08/21 09:26:36;;;;;;;24.35;5.35;;;24.80;99.90;;;;;;4991596;28;20291;-69
2022/08/21 09:29:06;;;;;;;19.08;5.63;;;24.90;99.90;;;;;;4995250;28;20691;-70
2022/08/21 09:31:37;;;;;;;21.08;5.43;;;24.80;99.90;;;;;;4992695;28;20627;-71
2022/08/21 09:34:07;;;;;;;25.77;5.55;;;24.80;99.90;;;;;;4992412;28;20202;-70
2022/08/21 09:36:39;;;;;;;20.77;5.68;;;24.90;99.90;;;;;;4992511;28;20244;-70
2022/08/21 09:39:07;;;;;;;24.45;5.57;;;24.90;99.90;;;;;;4994061;28;20699;-70
2022/08/21 09:41:36;;;;;;;26.85;5.47;;;24.90;99.90;;;;;;4992017;28;20208;-70
2022/08/21 09:44:04;;;;;;;24.90;5.35;;;24.90;99.90;;;;;;4991102;28;20202;-70
2022/08/21 09:46:32;;;;;;;29.65;5.35;;;24.90;99.90;;;;;;4988501;28;20276;-71
2022/08/21 09:49:03;;;;;;;20.40;5.15;;;25.00;99.90;;;;;;4996800;28;20225;-72
2022/08/21 09:51:32;;;;;;;25.67;5.10;;;25.10;99.90;;;;;;4990120;28;20612;-71
2022/08/21 09:54:18;;;;;;;23.45;5.00;;;25.10;99.90;;;;;;4988936;28;20287;-71
2022/08/21 09:59:40;;;;;;;25.90;5.43;;;25.40;99.90;;;;;;4985129;28;20231;-72
2022/08/21 10:02:26;;;;;;;23.52;5.60;;;25.40;99.90;;;;;;4989481;28;20252;-71
2022/08/21 10:04:56;;;;;;;21.52;5.35;;;25.40;99.90;;;;;;4995684;28;20220;-71
2022/08/21 10:07:26;;;;;;;27.38;4.70;;;25.50;99.90;;;;;;4990780;28;20558;-70
2022/08/21 10:10:01;;;;;;;26.75;5.25;;;25.50;99.90;;;;;;5009165;28;20310;-72
2022/08/21 10:12:36;;;;;;;28.50;5.18;;;25.50;99.90;;;;;;5008340;28;20210;-71
2022/08/21 10:15:13;;;;;;;20.98;4.50;;;25.50;99.90;;;;;;4993118;28;20278;-70
2022/08/21 10:17:57;;;;;;;20.08;4.55;;;25.60;99.90;;;;;;4992149;28;20209;-70
2022/08/21 10:20:37;;;;;;;26.80;4.50;;;25.70;99.90;;;;;;4992510;28;20189;-70
2022/08/21 10:23:16;;;;;;;21.52;4.55;;;25.80;99.90;;;;;;4988960;28;20253;-70
2022/08/21 10:25:52;;;;;;;24.88;4.82;;;25.80;99.90;;;;;;4992173;28;20305;-70
2022/08/21 10:28:26;;;;;;;23.85;5.93;;;25.90;99.90;;;;;;4999384;28;20295;-68
2022/08/21 10:30:57;;;;;;;25.90;4.65;;;25.80;99.90;;;;;;4992083;28;20209;-71
2022/08/21 10:33:31;;;;;;;23.65;5.03;;;25.80;99.90;;;;;;4992143;28;20538;-73
2022/08/21 10:36:05;;;;;;;24.17;6.00;;;25.90;99.90;;;;;;4992483;28;20271;-70
2022/08/21 10:38:56;;;;;;;31.92;4.55;;;26.00;99.90;;;;;;4990988;28;20397;-70
2022/08/21 10:41:32;;;;;;;20.30;4.82;;;26.00;99.90;;;;;;4992143;28;20316;-69
2022/08/21 10:44:09;;;;;;;20.50;3.45;;;26.10;99.90;;;;;;4991982;28;20277;-70
2022/08/21 10:46:47;;;;;;;25.60;4.82;;;26.20;99.90;;;;;;4989518;28;20694;-71
2022/08/21 10:49:26;;;;;;;20.13;4.00;;;26.20;99.90;;;;;;4996381;28;20253;-69
2022/08/21 10:52:04;;;;;;;22.25;4.50;;;26.10;99.90;;;;;;4992139;28;20234;-70
2022/08/21 10:54:41;;;;;;;27.48;4.90;;;26.10;99.90;;;;;;4990250;28;20232;-70
2022/08/21 10:57:16;;;;;;;16.90;4.07;;;26.10;99.90;;;;;;5005144;28;20776;-70
2022/08/21 10:59:56;;;;;;;20.58;4.32;;;26.10;99.90;;;;;;5003105;28;20199;-70
2022/08/21 11:02:28;;;;;;;18.90;4.53;;;26.10;99.90;;;;;;5000119;28;20262;-69
2022/08/21 11:05:00;;;;;;;20.23;4.38;;;26.20;99.90;;;;;;4992721;28;20241;-70
2022/08/21 11:07:33;;;;;;;20.48;3.97;;;26.20;99.90;;;;;;5015079;28;20209;-70
2022/08/21 11:10:06;;;;;;;19.08;4.47;;;26.30;99.90;;;;;;5015345;28;20332;-71
2022/08/21 11:12:39;;;;;;;18.80;4.70;;;26.40;99.90;;;;;;4999547;28;20637;-69
2022/08/21 11:15:20;;;;;;;15.88;4.43;;;26.40;99.90;;;;;;5002337;28;20218;-70
2022/08/21 11:17:55;;;;;;;19.40;4.07;;;26.40;99.90;;;;;;4992480;28;20205;-71
2022/08/21 11:20:28;;;;;;;27.17;4.70;;;26.30;99.90;;;;;;5008121;28;20307;-69
2022/08/21 11:23:03;;;;;;;30.27;4.35;;;26.30;99.90;;;;;;5013632;28;20601;-70
2022/08/21 11:25:37;;;;;;;25.38;4.70;;;26.30;99.90;;;;;;4997281;28;20638;-73
2022/08/21 11:28:10;;;;;;;19.98;4.80;;;26.30;99.90;;;;;;4995242;28;20258;-70
2022/08/21 11:30:47;;;;;;;19.65;4.05;;;26.40;99.90;;;;;;4995178;28;20192;-69
2022/08/21 11:33:30;;;;;;;23.10;4.30;;;26.40;99.90;;;;;;4994676;28;20243;-69
2022/08/21 11:36:04;;;;;;;21.98;4.35;;;26.40;99.90;;;;;;4993758;28;20285;-69
2022/08/21 11:38:39;;;;;;;18.30;4.30;;;26.40;99.90;;;;;;4993941;28;20242;-69
2022/08/21 11:41:24;;;;;;;23.15;4.72;;;26.40;99.90;;;;;;4995297;28;20263;-70
2022/08/21 11:43:58;;;;;;;20.38;4.05;;;26.50;99.90;;;;;;4994809;28;20268;-72
2022/08/21 11:46:34;;;;;;;17.30;4.20;;;26.50;99.90;;;;;;4994787;28;20767;-69
2022/08/21 11:49:16;;;;;;;23.38;4.45;;;26.50;99.90;;;;;;4994085;28;20296;-70
2022/08/21 11:51:49;;;;;;;17.83;4.63;;;26.50;99.90;;;;;;4997204;28;20205;-70
2022/08/21 11:54:27;;;;;;;22.77;5.03;;;26.50;99.90;;;;;;4994548;28;20315;-70
2022/08/21 11:57:00;;;;;;;20.52;4.90;;;26.60;99.90;;;;;;4994567;28;20242;-71
2022/08/21 11:59:37;;;;;;;29.67;4.82;;;26.60;99.90;;;;;;4995039;28;20297;-69
2022/08/21 12:02:10;;;;;;;20.15;4.85;;;26.60;99.90;;;;;;4994278;28;20746;-71
2022/08/21 12:04:45;;;;;;;22.95;5.30;;;26.60;99.90;;;;;;4994741;28;20195;-69
2022/08/21 12:07:14;;;;;;;22.45;4.63;;;26.60;99.90;;;;;;4994609;28;20707;-71
2022/08/21 12:09:53;;;;;;;25.63;3.88;;;26.60;99.90;;;;;;4994946;28;20214;-70
2022/08/21 12:12:26;;;;;;;33.25;5.22;;;26.70;99.90;;;;;;4994599;28;20656;-70
2022/08/21 12:15:08;;;;;;;24.73;4.70;;;26.60;99.90;;;;;;4994501;28;20715;-71
2022/08/21 12:17:40;;;;;;;26.33;4.60;;;26.70;99.90;;;;;;4993979;28;20284;-73
2022/08/21 12:20:23;;;;;;;14.63;3.95;;;26.70;99.90;;;;;;4994203;28;20210;-71
2022/08/21 12:22:54;;;;;;;21.55;4.68;;;26.70;99.90;;;;;;4994513;28;20280;-70
2022/08/21 12:25:23;;;;;;;19.23;4.13;;;26.60;99.90;;;;;;4994582;28;20577;-69
2022/08/21 12:27:52;;;;;;;24.60;5.63;;;26.60;99.90;;;;;;4993837;28;20209;-70
2022/08/21 12:30:34;;;;;;;20.05;4.53;;;26.70;99.90;;;;;;4993844;28;20206;-72
2022/08/21 12:33:03;;;;;;;20.48;4.40;;;26.70;99.90;;;;;;4994181;28;20193;-70
2022/08/21 12:35:38;;;;;;;15.88;4.07;;;26.80;99.90;;;;;;4994058;28;20227;-70
2022/08/21 12:38:13;;;;;;;17.27;3.58;;;26.80;99.90;;;;;;4993463;28;20338;-71
2022/08/21 12:40:44;;;;;;;25.40;3.80;;;26.80;99.90;;;;;;4993811;28;20275;-70
2022/08/21 12:43:17;;;;;;;17.40;4.03;;;26.80;99.90;;;;;;4994141;28;20200;-72
2022/08/21 12:45:46;;;;;;;17.17;4.00;;;26.90;99.90;;;;;;4993461;28;20281;-70
2022/08/21 12:48:20;;;;;;;16.50;4.13;;;26.90;99.90;;;;;;4993943;28;20626;-71
2022/08/21 12:50:52;;;;;;;16.35;4.20;;;26.90;99.90;;;;;;4993947;28;20258;-71